sensor_id;sensor_type;location;lat;lon;timestamp;temperature;humidity
43808;DHT22;29438;50.664;10.098;2022-08-19T00:00:05;17.90;87.20
43808;DHT22;29438;50.664;10.098;2022-08-19T00:02:32;17.90;87.10
43808;DHT22;29438;50.664;10.098;2022-08-19T00:04:58;17.90;86.90
43808;DHT22;29438;50.664;10.098;2022-08-19T00:07:24;17.90;87.10
43808;DHT22;29438;50.664;10.098;2022-08-19T00:09:49;17.90;87.20
43808;DHT22;29438;50.664;10.098;2022-08-19T00:12:15;17.80;87.30
43808;DHT22;29438;50.664;10.098;2022-08-19T00:14:40;17.80;87.30
43808;DHT22;29438;50.664;10.098;2022-08-19T00:17:08;17.90;87.50
43808;DHT22;29438;50.664;10.098;2022-08-19T00:19:34;17.90;87.50
43808;DHT22;29438;50.664;10.098;2022-08-19T00:22:00;17.90;87.20
43808;DHT22;29438;50.664;10.098;2022-08-19T00:24:28;17.90;87.20
43808;DHT22;29438;50.664;10.098;2022-08-19T00:26:54;18.00;87.30
43808;DHT22;29438;50.664;10.098;2022-08-19T00:29:22;18.00;87.20
43808;DHT22;29438;50.664;10.098;2022-08-19T00:31:48;17.90;87.00
43808;DHT22;29438;50.664;10.098;2022-08-19T00:34:15;18.00;86.90
43808;DHT22;29438;50.664;10.098;2022-08-19T00:36:42;18.00;86.50
43808;DHT22;29438;50.664;10.098;2022-08-19T00:39:08;18.00;86.70
43808;DHT22;29438;50.664;10.098;2022-08-19T00:41:34;18.00;86.70
43808;DHT22;29438;50.664;10.098;2022-08-19T00:44:03;18.00;86.60
43808;DHT22;29438;50.664;10.098;2022-08-19T00:46:30;18.00;86.60
43808;DHT22;29438;50.664;10.098;2022-08-19T00:48:57;18.00;86.60
43808;DHT22;29438;50.664;10.098;2022-08-19T00:51:26;18.00;86.80
43808;DHT22;29438;50.664;10.098;2022-08-19T00:53:54;18.00;86.90
43808;DHT22;29438;50.664;10.098;2022-08-19T00:56:20;18.00;87.00
43808;DHT22;29438;50.664;10.098;2022-08-19T00:58:46;18.00;86.90
43808;DHT22;29438;50.664;10.098;2022-08-19T01:01:11;17.90;86.80
43808;DHT22;29438;50.664;10.098;2022-08-19T01:03:37;17.90;87.00
43808;DHT22;29438;50.664;10.098;2022-08-19T01:06:02;17.90;87.30
43808;DHT22;29438;50.664;10.098;2022-08-19T01:08:28;17.90;87.40
43808;DHT22;29438;50.664;10.098;2022-08-19T01:10:56;17.90;87.50
43808;DHT22;29438;50.664;10.098;2022-08-19T01:13:26;17.90;87.50
43808;DHT22;29438;50.664;10.098;2022-08-19T01:16:02;17.90;87.50
43808;DHT22;29438;50.664;10.098;2022-08-19T01:18:29;17.80;87.60
43808;DHT22;29438;50.664;10.098;2022-08-19T01:21:03;17.80;87.90
43808;DHT22;29438;50.664;10.098;2022-08-19T01:23:31;17.70;88.00
43808;DHT22;29438;50.664;10.098;2022-08-19T01:26:15;17.70;88.00
43808;DHT22;29438;50.664;10.098;2022-08-19T01:28:42;17.70;88.20
43808;DHT22;29438;50.664;10.098;2022-08-19T01:31:12;17.70;88.30
43808;DHT22;29438;50.664;10.098;2022-08-19T01:33:38;17.60;88.30
43808;DHT22;29438;50.664;10.098;2022-08-19T01:36:09;17.60;88.40
43808;DHT22;29438;50.664;10.098;2022-08-19T01:38:37;17.60;88.60
43808;DHT22;29438;50.664;10.098;2022-08-19T01:41:04;17.60;88.70
43808;DHT22;29438;50.664;10.098;2022-08-19T01:43:31;17.60;88.70
43808;DHT22;29438;50.664;10.098;2022-08-19T01:45:57;17.60;88.70
43808;DHT22;29438;50.664;10.098;2022-08-19T01:48:23;17.60;88.70
43808;DHT22;29438;50.664;10.098;2022-08-19T01:50:49;17.70;88.60
43808;DHT22;29438;50.664;10.098;2022-08-19T01:53:14;17.60;88.50
43808;DHT22;29438;50.664;10.098;2022-08-19T01:55:41;17.60;88.40
43808;DHT22;29438;50.664;10.098;2022-08-19T01:58:12;17.60;88.50
43808;DHT22;29438;50.664;10.098;2022-08-19T02:00:38;17.60;88.50
43808;DHT22;29438;50.664;10.098;2022-08-19T02:03:04;17.60;88.60
43808;DHT22;29438;50.664;10.098;2022-08-19T02:05:30;17.60;88.60
43808;DHT22;29438;50.664;10.098;2022-08-19T02:07:56;17.50;88.60
43808;DHT22;29438;50.664;10.098;2022-08-19T02:10:22;17.40;88.70
43808;DHT22;29438;50.664;10.098;2022-08-19T02:12:49;17.40;88.80
43808;DHT22;29438;50.664;10.098;2022-08-19T02:15:15;17.30;88.90
43808;DHT22;29438;50.664;10.098;2022-08-19T02:17:41;17.30;89.10
43808;DHT22;29438;50.664;10.098;2022-08-19T02:20:08;17.30;89.30
43808;DHT22;29438;50.664;10.098;2022-08-19T02:22:34;17.30;89.40
43808;DHT22;29438;50.664;10.098;2022-08-19T02:25:01;17.30;89.50
43808;DHT22;29438;50.664;10.098;2022-08-19T02:27:26;17.30;89.70
43808;DHT22;29438;50.664;10.098;2022-08-19T02:29:52;17.30;89.80
43808;DHT22;29438;50.664;10.098;2022-08-19T02:32:19;17.30;89.80
43808;DHT22;29438;50.664;10.098;2022-08-19T02:34:45;17.40;89.80
43808;DHT22;29438;50.664;10.098;2022-08-19T02:37:11;17.50;89.70
43808;DHT22;29438;50.664;10.098;2022-08-19T02:39:57;17.60;89.70
43808;DHT22;29438;50.664;10.098;2022-08-19T02:42:23;17.60;89.80
43808;DHT22;29438;50.664;10.098;2022-08-19T02:44:49;17.70;89.80
43808;DHT22;29438;50.664;10.098;2022-08-19T02:47:15;17.70;89.80
43808;DHT22;29438;50.664;10.098;2022-08-19T02:49:41;17.80;89.60
43808;DHT22;29438;50.664;10.098;2022-08-19T02:52:06;17.80;89.60
43808;DHT22;29438;50.664;10.098;2022-08-19T02:54:32;17.90;89.60
43808;DHT22;29438;50.664;10.098;2022-08-19T02:56:58;17.90;89.50
43808;DHT22;29438;50.664;10.098;2022-08-19T02:59:24;17.90;89.40
43808;DHT22;29438;50.664;10.098;2022-08-19T03:01:51;17.90;89.40
43808;DHT22;29438;50.664;10.098;2022-08-19T03:04:17;17.90;89.30
43808;DHT22;29438;50.664;10.098;2022-08-19T03:06:46;17.90;89.30
43808;DHT22;29438;50.664;10.098;2022-08-19T03:09:12;17.80;89.30
43808;DHT22;29438;50.664;10.098;2022-08-19T03:11:39;17.80;89.40
43808;DHT22;29438;50.664;10.098;2022-08-19T03:14:06;17.90;89.30
43808;DHT22;29438;50.664;10.098;2022-08-19T03:16:41;17.80;89.20
43808;DHT22;29438;50.664;10.098;2022-08-19T03:19:06;17.80;89.40
43808;DHT22;29438;50.664;10.098;2022-08-19T03:21:33;17.80;89.60
43808;DHT22;29438;50.664;10.098;2022-08-19T03:24:03;17.70;89.60
43808;DHT22;29438;50.664;10.098;2022-08-19T03:26:29;17.70;89.50
43808;DHT22;29438;50.664;10.098;2022-08-19T03:28:55;17.70;89.70
43808;DHT22;29438;50.664;10.098;2022-08-19T03:31:21;17.70;89.80
43808;DHT22;29438;50.664;10.098;2022-08-19T03:33:51;17.70;89.80
43808;DHT22;29438;50.664;10.098;2022-08-19T03:36:20;17.70;89.80
43808;DHT22;29438;50.664;10.098;2022-08-19T03:38:50;17.90;89.70
43808;DHT22;29438;50.664;10.098;2022-08-19T03:41:20;17.90;89.70
43808;DHT22;29438;50.664;10.098;2022-08-19T03:43:47;17.90;89.70
43808;DHT22;29438;50.664;10.098;2022-08-19T03:46:15;17.80;89.60
43808;DHT22;29438;50.664;10.098;2022-08-19T03:48:42;17.80;89.60
43808;DHT22;29438;50.664;10.098;2022-08-19T03:51:18;17.80;89.60
43808;DHT22;29438;50.664;10.098;2022-08-19T03:53:45;17.90;89.70
43808;DHT22;29438;50.664;10.098;2022-08-19T03:56:10;17.80;89.80
43808;DHT22;29438;50.664;10.098;2022-08-19T03:58:36;17.80;89.80
43808;DHT22;29438;50.664;10.098;2022-08-19T04:01:07;17.80;89.90
43808;DHT22;29438;50.664;10.098;2022-08-19T04:03:32;17.80;89.90
43808;DHT22;29438;50.664;10.098;2022-08-19T04:05:58;17.90;89.90
43808;DHT22;29438;50.664;10.098;2022-08-19T04:08:23;17.80;89.90
43808;DHT22;29438;50.664;10.098;2022-08-19T04:10:49;17.80;89.80
43808;DHT22;29438;50.664;10.098;2022-08-19T04:13:16;17.80;89.80
43808;DHT22;29438;50.664;10.098;2022-08-19T04:15:44;17.80;89.80
43808;DHT22;29438;50.664;10.098;2022-08-19T04:18:12;17.80;90.00
43808;DHT22;29438;50.664;10.098;2022-08-19T04:20:40;17.80;90.10
43808;DHT22;29438;50.664;10.098;2022-08-19T04:23:06;17.90;90.10
43808;DHT22;29438;50.664;10.098;2022-08-19T04:25:36;17.90;90.10
43808;DHT22;29438;50.664;10.098;2022-08-19T04:28:02;17.90;90.00
43808;DHT22;29438;50.664;10.098;2022-08-19T04:30:28;17.90;89.90
43808;DHT22;29438;50.664;10.098;2022-08-19T04:32:53;17.90;89.90
43808;DHT22;29438;50.664;10.098;2022-08-19T04:35:19;17.90;89.90
43808;DHT22;29438;50.664;10.098;2022-08-19T04:37:44;17.90;89.70
43808;DHT22;29438;50.664;10.098;2022-08-19T04:40:10;17.90;89.60
43808;DHT22;29438;50.664;10.098;2022-08-19T04:42:54;18.00;89.60
43808;DHT22;29438;50.664;10.098;2022-08-19T04:45:20;18.00;89.50
43808;DHT22;29438;50.664;10.098;2022-08-19T04:47:45;18.00;89.40
43808;DHT22;29438;50.664;10.098;2022-08-19T04:50:11;18.00;89.40
43808;DHT22;29438;50.664;10.098;2022-08-19T04:52:38;18.10;89.40
43808;DHT22;29438;50.664;10.098;2022-08-19T04:55:08;18.10;89.20
43808;DHT22;29438;50.664;10.098;2022-08-19T04:57:33;18.10;89.20
43808;DHT22;29438;50.664;10.098;2022-08-19T04:59:59;18.20;89.00
43808;DHT22;29438;50.664;10.098;2022-08-19T05:02:24;18.20;88.90
43808;DHT22;29438;50.664;10.098;2022-08-19T05:04:55;18.20;88.70
43808;DHT22;29438;50.664;10.098;2022-08-19T05:07:21;18.20;88.60
43808;DHT22;29438;50.664;10.098;2022-08-19T05:09:47;18.30;88.60
43808;DHT22;29438;50.664;10.098;2022-08-19T05:12:12;18.30;88.40
43808;DHT22;29438;50.664;10.098;2022-08-19T05:14:38;18.40;88.10
43808;DHT22;29438;50.664;10.098;2022-08-19T05:17:03;18.40;88.20
43808;DHT22;29438;50.664;10.098;2022-08-19T05:19:29;18.40;88.00
43808;DHT22;29438;50.664;10.098;2022-08-19T05:22:13;18.50;88.10
43808;DHT22;29438;50.664;10.098;2022-08-19T05:24:57;18.50;87.80
43808;DHT22;29438;50.664;10.098;2022-08-19T05:27:23;18.60;88.00
43808;DHT22;29438;50.664;10.098;2022-08-19T05:29:48;18.50;87.80
43808;DHT22;29438;50.664;10.098;2022-08-19T05:32:14;18.60;87.60
43808;DHT22;29438;50.664;10.098;2022-08-19T05:34:39;18.70;87.30
43808;DHT22;29438;50.664;10.098;2022-08-19T05:37:05;18.70;87.20
43808;DHT22;29438;50.664;10.098;2022-08-19T05:39:35;18.80;87.10
43808;DHT22;29438;50.664;10.098;2022-08-19T05:42:04;18.90;86.70
43808;DHT22;29438;50.664;10.098;2022-08-19T05:44:33;19.00;86.40
43808;DHT22;29438;50.664;10.098;2022-08-19T05:47:01;19.20;86.10
43808;DHT22;29438;50.664;10.098;2022-08-19T05:49:28;19.20;85.40
43808;DHT22;29438;50.664;10.098;2022-08-19T05:51:54;19.50;85.00
43808;DHT22;29438;50.664;10.098;2022-08-19T05:54:22;19.60;84.30
43808;DHT22;29438;50.664;10.098;2022-08-19T05:56:50;19.80;83.60
43808;DHT22;29438;50.664;10.098;2022-08-19T05:59:16;20.00;82.80
43808;DHT22;29438;50.664;10.098;2022-08-19T06:01:44;20.00;83.10
43808;DHT22;29438;50.664;10.098;2022-08-19T06:04:11;20.10;82.90
43808;DHT22;29438;50.664;10.098;2022-08-19T06:06:39;20.30;82.40
43808;DHT22;29438;50.664;10.098;2022-08-19T06:09:06;20.60;81.40
43808;DHT22;29438;50.664;10.098;2022-08-19T06:11:42;21.00;79.80
43808;DHT22;29438;50.664;10.098;2022-08-19T06:14:12;21.40;78.70
43808;DHT22;29438;50.664;10.098;2022-08-19T06:16:40;21.70;77.80
43808;DHT22;29438;50.664;10.098;2022-08-19T06:19:09;21.80;76.60
43808;DHT22;29438;50.664;10.098;2022-08-19T06:21:36;21.90;76.00
43808;DHT22;29438;50.664;10.098;2022-08-19T06:24:07;21.70;75.70
43808;DHT22;29438;50.664;10.098;2022-08-19T06:26:35;21.40;76.80
43808;DHT22;29438;50.664;10.098;2022-08-19T06:29:02;21.20;77.60
43808;DHT22;29438;50.664;10.098;2022-08-19T06:31:29;21.00;78.40
43808;DHT22;29438;50.664;10.098;2022-08-19T06:33:54;20.90;78.90
43808;DHT22;29438;50.664;10.098;2022-08-19T06:36:21;20.70;79.20
43808;DHT22;29438;50.664;10.098;2022-08-19T06:38:47;20.80;79.40
43808;DHT22;29438;50.664;10.098;2022-08-19T06:41:13;21.00;78.80
43808;DHT22;29438;50.664;10.098;2022-08-19T06:43:39;21.10;78.50
43808;DHT22;29438;50.664;10.098;2022-08-19T06:46:11;21.10;78.50
43808;DHT22;29438;50.664;10.098;2022-08-19T06:48:37;21.00;78.20
43808;DHT22;29438;50.664;10.098;2022-08-19T06:51:03;20.90;78.90
43808;DHT22;29438;50.664;10.098;2022-08-19T06:53:30;21.00;78.70
43808;DHT22;29438;50.664;10.098;2022-08-19T06:55:56;20.90;78.40
43808;DHT22;29438;50.664;10.098;2022-08-19T06:58:25;21.00;78.20
43808;DHT22;29438;50.664;10.098;2022-08-19T07:00:51;21.00;77.90
43808;DHT22;29438;50.664;10.098;2022-08-19T07:03:16;21.00;77.80
43808;DHT22;29438;50.664;10.098;2022-08-19T07:05:43;21.00;77.80
43808;DHT22;29438;50.664;10.098;2022-08-19T07:08:09;21.00;77.30
43808;DHT22;29438;50.664;10.098;2022-08-19T07:10:35;21.10;76.40
43808;DHT22;29438;50.664;10.098;2022-08-19T07:13:02;21.20;76.20
43808;DHT22;29438;50.664;10.098;2022-08-19T07:15:29;21.10;76.30
43808;DHT22;29438;50.664;10.098;2022-08-19T07:17:57;21.30;75.40
43808;DHT22;29438;50.664;10.098;2022-08-19T07:20:23;21.30;74.10
43808;DHT22;29438;50.664;10.098;2022-08-19T07:22:49;21.20;73.70
43808;DHT22;29438;50.664;10.098;2022-08-19T07:25:14;21.30;74.00
43808;DHT22;29438;50.664;10.098;2022-08-19T07:27:42;21.60;73.50
43808;DHT22;29438;50.664;10.098;2022-08-19T07:30:09;21.60;73.20
43808;DHT22;29438;50.664;10.098;2022-08-19T07:32:37;21.70;73.70
43808;DHT22;29438;50.664;10.098;2022-08-19T07:35:02;22.00;71.20
43808;DHT22;29438;50.664;10.098;2022-08-19T07:37:28;22.30;70.70
43808;DHT22;29438;50.664;10.098;2022-08-19T07:39:54;22.40;68.60
43808;DHT22;29438;50.664;10.098;2022-08-19T07:42:19;22.30;70.00
43808;DHT22;29438;50.664;10.098;2022-08-19T07:44:46;22.10;69.40
43808;DHT22;29438;50.664;10.098;2022-08-19T07:47:12;22.10;70.70
43808;DHT22;29438;50.664;10.098;2022-08-19T07:49:40;21.80;69.70
43808;DHT22;29438;50.664;10.098;2022-08-19T07:52:08;21.60;68.90
43808;DHT22;29438;50.664;10.098;2022-08-19T07:54:36;21.50;69.90
43808;DHT22;29438;50.664;10.098;2022-08-19T07:57:02;21.70;69.50
43808;DHT22;29438;50.664;10.098;2022-08-19T07:59:28;21.80;70.00
43808;DHT22;29438;50.664;10.098;2022-08-19T08:01:55;22.00;68.10
43808;DHT22;29438;50.664;10.098;2022-08-19T08:04:21;22.20;66.70
43808;DHT22;29438;50.664;10.098;2022-08-19T08:07:07;22.20;66.50
43808;DHT22;29438;50.664;10.098;2022-08-19T08:09:52;22.20;65.00
43808;DHT22;29438;50.664;10.098;2022-08-19T08:12:22;22.40;64.30
43808;DHT22;29438;50.664;10.098;2022-08-19T08:14:52;22.60;62.90
43808;DHT22;29438;50.664;10.098;2022-08-19T08:17:20;22.60;62.30
43808;DHT22;29438;50.664;10.098;2022-08-19T08:19:46;22.70;61.20
43808;DHT22;29438;50.664;10.098;2022-08-19T08:22:15;22.70;61.20
43808;DHT22;29438;50.664;10.098;2022-08-19T08:25:10;22.70;60.80
43808;DHT22;29438;50.664;10.098;2022-08-19T08:27:41;22.70;60.50
43808;DHT22;29438;50.664;10.098;2022-08-19T08:30:08;22.70;60.90
43808;DHT22;29438;50.664;10.098;2022-08-19T08:32:36;22.70;61.30
43808;DHT22;29438;50.664;10.098;2022-08-19T08:35:07;22.60;61.10
43808;DHT22;29438;50.664;10.098;2022-08-19T08:37:33;22.60;61.40
43808;DHT22;29438;50.664;10.098;2022-08-19T08:40:01;22.70;61.90
43808;DHT22;29438;50.664;10.098;2022-08-19T08:42:34;22.60;61.30
43808;DHT22;29438;50.664;10.098;2022-08-19T08:45:13;22.50;61.80
43808;DHT22;29438;50.664;10.098;2022-08-19T08:47:44;22.90;62.50
43808;DHT22;29438;50.664;10.098;2022-08-19T08:50:18;22.90;61.20
43808;DHT22;29438;50.664;10.098;2022-08-19T08:52:46;23.00;61.00
43808;DHT22;29438;50.664;10.098;2022-08-19T08:55:18;23.20;59.20
43808;DHT22;29438;50.664;10.098;2022-08-19T09:00:19;23.40;60.20
43808;DHT22;29438;50.664;10.098;2022-08-19T09:02:46;23.10;60.90
43808;DHT22;29438;50.664;10.098;2022-08-19T09:05:12;23.00;60.90
43808;DHT22;29438;50.664;10.098;2022-08-19T09:08:06;23.00;61.10
43808;DHT22;29438;50.664;10.098;2022-08-19T09:10:44;22.90;60.00
43808;DHT22;29438;50.664;10.098;2022-08-19T09:13:18;22.70;59.00
43808;DHT22;29438;50.664;10.098;2022-08-19T09:15:50;22.20;61.30
43808;DHT22;29438;50.664;10.098;2022-08-19T09:18:17;22.10;60.60
43808;DHT22;29438;50.664;10.098;2022-08-19T09:20:45;22.30;64.70
43808;DHT22;29438;50.664;10.098;2022-08-19T09:23:12;22.80;61.80
43808;DHT22;29438;50.664;10.098;2022-08-19T09:25:38;23.20;60.30
43808;DHT22;29438;50.664;10.098;2022-08-19T09:28:05;22.80;58.60
43808;DHT22;29438;50.664;10.098;2022-08-19T09:30:34;22.40;60.60
43808;DHT22;29438;50.664;10.098;2022-08-19T09:33:03;22.10;62.00
43808;DHT22;29438;50.664;10.098;2022-08-19T09:35:29;21.70;62.60
43808;DHT22;29438;50.664;10.098;2022-08-19T09:37:56;21.70;63.60
43808;DHT22;29438;50.664;10.098;2022-08-19T09:40:22;21.80;64.40
43808;DHT22;29438;50.664;10.098;2022-08-19T09:42:48;21.80;62.90
43808;DHT22;29438;50.664;10.098;2022-08-19T09:45:15;21.90;63.50
43808;DHT22;29438;50.664;10.098;2022-08-19T09:47:42;21.60;62.20
43808;DHT22;29438;50.664;10.098;2022-08-19T09:50:10;21.80;63.60
43808;DHT22;29438;50.664;10.098;2022-08-19T09:52:36;21.90;63.50
43808;DHT22;29438;50.664;10.098;2022-08-19T09:55:07;22.30;64.00
43808;DHT22;29438;50.664;10.098;2022-08-19T09:57:33;22.80;62.30
43808;DHT22;29438;50.664;10.098;2022-08-19T09:59:59;22.90;60.80
43808;DHT22;29438;50.664;10.098;2022-08-19T10:02:24;23.20;60.10
43808;DHT22;29438;50.664;10.098;2022-08-19T10:04:50;23.40;58.50
43808;DHT22;29438;50.664;10.098;2022-08-19T10:07:34;23.70;57.90
43808;DHT22;29438;50.664;10.098;2022-08-19T10:10:00;24.10;58.00
43808;DHT22;29438;50.664;10.098;2022-08-19T10:12:26;24.20;57.70
43808;DHT22;29438;50.664;10.098;2022-08-19T10:14:51;24.30;57.20
43808;DHT22;29438;50.664;10.098;2022-08-19T10:17:18;24.60;54.80
43808;DHT22;29438;50.664;10.098;2022-08-19T10:19:44;24.60;55.70
43808;DHT22;29438;50.664;10.098;2022-08-19T10:22:09;24.20;55.60
43808;DHT22;29438;50.664;10.098;2022-08-19T10:24:39;24.30;55.60
43808;DHT22;29438;50.664;10.098;2022-08-19T10:27:05;24.20;56.40
43808;DHT22;29438;50.664;10.098;2022-08-19T10:29:32;24.00;56.50
43808;DHT22;29438;50.664;10.098;2022-08-19T10:32:00;22.80;59.10
43808;DHT22;29438;50.664;10.098;2022-08-19T10:34:28;22.30;60.00
43808;DHT22;29438;50.664;10.098;2022-08-19T10:36:54;21.90;61.70
43808;DHT22;29438;50.664;10.098;2022-08-19T10:39:20;22.30;61.30
43808;DHT22;29438;50.664;10.098;2022-08-19T10:41:46;22.60;62.20
43808;DHT22;29438;50.664;10.098;2022-08-19T10:44:12;22.90;61.20
43808;DHT22;29438;50.664;10.098;2022-08-19T10:46:42;23.20;60.40
43808;DHT22;29438;50.664;10.098;2022-08-19T10:49:12;23.50;59.30
43808;DHT22;29438;50.664;10.098;2022-08-19T10:51:39;23.50;58.80
43808;DHT22;29438;50.664;10.098;2022-08-19T10:54:24;23.60;58.50
43808;DHT22;29438;50.664;10.098;2022-08-19T10:57:09;23.60;58.50
43808;DHT22;29438;50.664;10.098;2022-08-19T10:59:35;23.80;58.60
43808;DHT22;29438;50.664;10.098;2022-08-19T11:02:03;24.00;58.40
43808;DHT22;29438;50.664;10.098;2022-08-19T11:04:29;24.10;57.70
43808;DHT22;29438;50.664;10.098;2022-08-19T11:06:55;23.80;58.80
43808;DHT22;29438;50.664;10.098;2022-08-19T11:09:23;23.80;57.10
43808;DHT22;29438;50.664;10.098;2022-08-19T11:11:53;23.50;59.10
43808;DHT22;29438;50.664;10.098;2022-08-19T11:14:20;23.40;61.00
43808;DHT22;29438;50.664;10.098;2022-08-19T11:16:47;23.50;58.60
43808;DHT22;29438;50.664;10.098;2022-08-19T11:19:13;24.00;57.50
43808;DHT22;29438;50.664;10.098;2022-08-19T11:21:41;24.50;58.30
43808;DHT22;29438;50.664;10.098;2022-08-19T11:24:13;25.20;55.80
43808;DHT22;29438;50.664;10.098;2022-08-19T11:26:39;25.20;55.10
43808;DHT22;29438;50.664;10.098;2022-08-19T11:29:08;25.70;55.90
43808;DHT22;29438;50.664;10.098;2022-08-19T11:31:40;26.40;51.50
43808;DHT22;29438;50.664;10.098;2022-08-19T11:34:08;26.50;51.70
43808;DHT22;29438;50.664;10.098;2022-08-19T11:36:36;26.20;52.20
43808;DHT22;29438;50.664;10.098;2022-08-19T11:39:04;27.00;50.90
43808;DHT22;29438;50.664;10.098;2022-08-19T11:41:30;26.50;51.10
43808;DHT22;29438;50.664;10.098;2022-08-19T11:43:56;26.70;51.60
43808;DHT22;29438;50.664;10.098;2022-08-19T11:46:24;26.20;51.60
43808;DHT22;29438;50.664;10.098;2022-08-19T11:48:50;25.60;52.80
43808;DHT22;29438;50.664;10.098;2022-08-19T11:51:19;25.30;54.70
43808;DHT22;29438;50.664;10.098;2022-08-19T11:53:45;25.80;52.90
43808;DHT22;29438;50.664;10.098;2022-08-19T11:56:11;26.80;50.50
43808;DHT22;29438;50.664;10.098;2022-08-19T11:58:37;26.90;50.30
43808;DHT22;29438;50.664;10.098;2022-08-19T12:01:08;27.10;49.50
43808;DHT22;29438;50.664;10.098;2022-08-19T12:03:34;25.80;52.40
43808;DHT22;29438;50.664;10.098;2022-08-19T12:06:10;24.90;55.00
43808;DHT22;29438;50.664;10.098;2022-08-19T12:08:38;24.80;55.20
43808;DHT22;29438;50.664;10.098;2022-08-19T12:11:03;24.80;54.10
43808;DHT22;29438;50.664;10.098;2022-08-19T12:13:30;24.60;56.40
43808;DHT22;29438;50.664;10.098;2022-08-19T12:15:56;24.30;55.90
43808;DHT22;29438;50.664;10.098;2022-08-19T12:18:22;24.00;57.40
43808;DHT22;29438;50.664;10.098;2022-08-19T12:20:50;24.50;57.20
43808;DHT22;29438;50.664;10.098;2022-08-19T12:23:16;24.90;55.60
43808;DHT22;29438;50.664;10.098;2022-08-19T12:25:46;25.00;54.60
43808;DHT22;29438;50.664;10.098;2022-08-19T12:28:15;25.10;56.90
43808;DHT22;29438;50.664;10.098;2022-08-19T12:30:41;24.80;55.60
43808;DHT22;29438;50.664;10.098;2022-08-19T12:33:07;24.70;56.40
43808;DHT22;29438;50.664;10.098;2022-08-19T12:35:33;25.00;56.50
43808;DHT22;29438;50.664;10.098;2022-08-19T12:37:59;25.10;54.40
43808;DHT22;29438;50.664;10.098;2022-08-19T12:40:29;25.00;55.20
43808;DHT22;29438;50.664;10.098;2022-08-19T12:42:55;25.30;55.10
43808;DHT22;29438;50.664;10.098;2022-08-19T12:45:20;26.20;52.50
43808;DHT22;29438;50.664;10.098;2022-08-19T12:47:46;26.40;51.50
43808;DHT22;29438;50.664;10.098;2022-08-19T12:50:12;26.60;51.40
43808;DHT22;29438;50.664;10.098;2022-08-19T12:52:38;25.80;51.20
43808;DHT22;29438;50.664;10.098;2022-08-19T12:55:06;25.30;52.90
43808;DHT22;29438;50.664;10.098;2022-08-19T12:57:31;25.20;53.50
43808;DHT22;29438;50.664;10.098;2022-08-19T13:00:08;25.00;53.80
43808;DHT22;29438;50.664;10.098;2022-08-19T13:02:41;24.70;54.60
43808;DHT22;29438;50.664;10.098;2022-08-19T13:05:09;24.40;54.80
43808;DHT22;29438;50.664;10.098;2022-08-19T13:07:36;24.50;55.70
43808;DHT22;29438;50.664;10.098;2022-08-19T13:10:05;24.70;55.20
43808;DHT22;29438;50.664;10.098;2022-08-19T13:12:30;24.80;54.50
43808;DHT22;29438;50.664;10.098;2022-08-19T13:14:56;24.70;54.90
43808;DHT22;29438;50.664;10.098;2022-08-19T13:17:21;24.60;55.40
43808;DHT22;29438;50.664;10.098;2022-08-19T13:19:48;24.60;54.80
43808;DHT22;29438;50.664;10.098;2022-08-19T13:22:14;24.60;54.10
43808;DHT22;29438;50.664;10.098;2022-08-19T13:24:39;24.60;54.00
43808;DHT22;29438;50.664;10.098;2022-08-19T13:27:05;24.90;55.00
43808;DHT22;29438;50.664;10.098;2022-08-19T13:29:32;25.20;54.30
43808;DHT22;29438;50.664;10.098;2022-08-19T13:32:16;25.60;53.00
43808;DHT22;29438;50.664;10.098;2022-08-19T13:35:00;25.90;51.80
43808;DHT22;29438;50.664;10.098;2022-08-19T13:37:26;25.80;50.00
43808;DHT22;29438;50.664;10.098;2022-08-19T13:40:13;25.60;50.70
43808;DHT22;29438;50.664;10.098;2022-08-19T13:42:42;25.70;50.70
43808;DHT22;29438;50.664;10.098;2022-08-19T13:45:09;25.80;50.50
43808;DHT22;29438;50.664;10.098;2022-08-19T13:47:35;26.00;50.30
43808;DHT22;29438;50.664;10.098;2022-08-19T13:50:04;26.20;49.80
43808;DHT22;29438;50.664;10.098;2022-08-19T13:52:30;26.50;49.10
43808;DHT22;29438;50.664;10.098;2022-08-19T13:54:55;26.50;49.20
43808;DHT22;29438;50.664;10.098;2022-08-19T13:57:22;26.50;49.50
43808;DHT22;29438;50.664;10.098;2022-08-19T13:59:47;26.40;49.30
43808;DHT22;29438;50.664;10.098;2022-08-19T14:02:13;26.30;51.10
43808;DHT22;29438;50.664;10.098;2022-08-19T14:05:13;26.20;49.50
43808;DHT22;29438;50.664;10.098;2022-08-19T14:07:39;25.80;50.50
43808;DHT22;29438;50.664;10.098;2022-08-19T14:10:06;25.50;52.70
43808;DHT22;29438;50.664;10.098;2022-08-19T14:12:32;25.40;52.30
43808;DHT22;29438;50.664;10.098;2022-08-19T14:14:59;24.90;52.20
43808;DHT22;29438;50.664;10.098;2022-08-19T14:17:24;24.80;51.70
43808;DHT22;29438;50.664;10.098;2022-08-19T14:19:59;24.70;51.90
43808;DHT22;29438;50.664;10.098;2022-08-19T14:22:33;24.70;52.60
43808;DHT22;29438;50.664;10.098;2022-08-19T14:24:59;24.70;52.70
43808;DHT22;29438;50.664;10.098;2022-08-19T14:27:25;24.70;53.50
43808;DHT22;29438;50.664;10.098;2022-08-19T14:29:54;24.60;52.30
43808;DHT22;29438;50.664;10.098;2022-08-19T14:32:20;24.30;53.10
43808;DHT22;29438;50.664;10.098;2022-08-19T14:34:46;24.20;52.90
43808;DHT22;29438;50.664;10.098;2022-08-19T14:37:13;24.20;53.60
43808;DHT22;29438;50.664;10.098;2022-08-19T14:39:42;24.20;52.50
43808;DHT22;29438;50.664;10.098;2022-08-19T14:42:08;24.20;52.30
43808;DHT22;29438;50.664;10.098;2022-08-19T14:44:34;24.40;53.10
43808;DHT22;29438;50.664;10.098;2022-08-19T14:47:00;24.60;52.50
43808;DHT22;29438;50.664;10.098;2022-08-19T14:49:25;25.00;52.40
43808;DHT22;29438;50.664;10.098;2022-08-19T14:51:51;25.20;51.50
43808;DHT22;29438;50.664;10.098;2022-08-19T14:54:17;25.50;50.00
43808;DHT22;29438;50.664;10.098;2022-08-19T14:56:42;25.40;49.70
43808;DHT22;29438;50.664;10.098;2022-08-19T14:59:08;25.20;50.30
43808;DHT22;29438;50.664;10.098;2022-08-19T15:01:34;25.40;49.70
43808;DHT22;29438;50.664;10.098;2022-08-19T15:04:00;25.10;49.60
43808;DHT22;29438;50.664;10.098;2022-08-19T15:06:26;25.00;51.60
43808;DHT22;29438;50.664;10.098;2022-08-19T15:08:52;25.10;50.80
43808;DHT22;29438;50.664;10.098;2022-08-19T15:11:22;25.40;50.10
43808;DHT22;29438;50.664;10.098;2022-08-19T15:13:48;25.60;49.10
43808;DHT22;29438;50.664;10.098;2022-08-19T15:16:14;25.40;49.30
43808;DHT22;29438;50.664;10.098;2022-08-19T15:18:40;25.30;49.60
43808;DHT22;29438;50.664;10.098;2022-08-19T15:21:09;25.30;50.40